sensor_id;sensor_type;location;lat;lon;timestamp;pressure;altitude;pressure_sealevel;temperature;humidity
3844;BME280;1937;51.444;6.484;2023-10-13T00:01:04;70005.41;;;18.39;100.00
3844;BME280;1937;51.444;6.484;2023-10-13T00:03:33;69999.88;;;18.23;100.00
3844;BME280;1937;51.444;6.484;2023-10-13T00:06:02;70000.88;;;18.26;100.00
3844;BME280;1937;51.444;6.484;2023-10-13T00:08:30;70004.06;;;18.27;100.00
3844;BME280;1937;51.444;6.484;2023-10-13T00:10:57;69972.19;;;18.26;100.00
3844;BME280;1937;51.444;6.484;2023-10-13T00:13:26;69984.41;;;18.28;100.00
3844;BME280;1937;51.444;6.484;2023-10-13T00:15:53;70023.72;;;18.32;100.00
3844;BME280;1937;51.444;6.484;2023-10-13T00:18:24;70014.28;;;18.35;100.00
3844;BME280;1937;51.444;6.484;2023-10-13T00:20:55;69986.19;;;18.36;100.00
3844;BME280;1937;51.444;6.484;2023-10-13T00:23:23;69951.72;;;18.29;100.00
3844;BME280;1937;51.444;6.484;2023-10-13T00:25:53;69997.84;;;18.30;100.00
3844;BME280;1937;51.444;6.484;2023-10-13T00:28:25;70014.06;;;18.37;100.00
3844;BME280;1937;51.444;6.484;2023-10-13T00:30:52;69969.94;;;18.35;100.00
3844;BME280;1937;51.444;6.484;2023-10-13T00:33:25;69977.56;;;18.37;100.00
3844;BME280;1937;51.444;6.484;2023-10-13T00:35:52;70032.28;;;18.44;100.00
3844;BME280;1937;51.444;6.484;2023-10-13T00:38:23;70002.22;;;18.38;100.00
3844;BME280;1937;51.444;6.484;2023-10-13T00:40:50;69980.38;;;18.35;100.00
3844;BME280;1937;51.444;6.484;2023-10-13T00:43:22;70020.69;;;18.36;100.00
3844;BME280;1937;51.444;6.484;2023-10-13T00:46:01;69964.34;;;18.26;100.00
3844;BME280;1937;51.444;6.484;2023-10-13T00:48:38;70016.28;;;18.35;100.00
3844;BME280;1937;51.444;6.484;2023-10-13T00:51:09;70010.88;;;18.37;100.00
3844;BME280;1937;51.444;6.484;2023-10-13T00:53:46;70015.06;;;18.34;100.00
3844;BME280;1937;51.444;6.484;2023-10-13T00:56:13;70018.28;;;18.34;100.00
3844;BME280;1937;51.444;6.484;2023-10-13T00:58:49;70006.81;;;18.38;100.00
3844;BME280;1937;51.444;6.484;2023-10-13T01:01:16;70017.47;;;18.42;100.00
3844;BME280;1937;51.444;6.484;2023-10-13T01:03:49;70085.03;;;18.51;100.00
3844;BME280;1937;51.444;6.484;2023-10-13T01:06:16;70030.28;;;18.45;100.00
3844;BME280;1937;51.444;6.484;2023-10-13T01:08:45;69978.78;;;18.32;100.00
3844;BME280;1937;51.444;6.484;2023-10-13T01:11:16;70031.09;;;18.43;100.00
3844;BME280;1937;51.444;6.484;2023-10-13T01:13:43;70036.53;;;18.41;100.00
3844;BME280;1937;51.444;6.484;2023-10-13T01:16:10;70082.25;;;18.47;100.00
3844;BME280;1937;51.444;6.484;2023-10-13T01:18:37;70050.50;;;18.51;100.00
3844;BME280;1937;51.444;6.484;2023-10-13T01:21:13;70052.75;;;18.55;100.00
3844;BME280;1937;51.444;6.484;2023-10-13T01:23:43;70073.19;;;18.59;100.00
3844;BME280;1937;51.444;6.484;2023-10-13T01:26:09;70046.50;;;18.52;100.00
3844;BME280;1937;51.444;6.484;2023-10-13T01:28:38;70063.34;;;18.53;100.00
3844;BME280;1937;51.444;6.484;2023-10-13T01:31:10;70020.69;;;18.36;100.00
3844;BME280;1937;51.444;6.484;2023-10-13T01:33:42;70081.47;;;18.41;100.00
3844;BME280;1937;51.444;6.484;2023-10-13T01:36:08;70056.44;;;18.31;100.00
3844;BME280;1937;51.444;6.484;2023-10-13T01:38:40;70115.75;;;18.51;100.00
3844;BME280;1937;51.444;6.484;2023-10-13T01:41:09;70063.81;;;18.42;100.00
3844;BME280;1937;51.444;6.484;2023-10-13T01:43:38;70110.94;;;18.47;100.00
3844;BME280;1937;51.444;6.484;2023-10-13T01:46:03;70119.38;;;18.47;100.00
3844;BME280;1937;51.444;6.484;2023-10-13T01:48:30;70090.69;;;18.40;100.00
3844;BME280;1937;51.444;6.484;2023-10-13T01:50:58;70101.94;;;18.39;100.00
3844;BME280;1937;51.444;6.484;2023-10-13T01:53:27;70086.53;;;18.30;100.00
3844;BME280;1937;51.444;6.484;2023-10-13T01:55:55;70111.97;;;18.36;100.00
3844;BME280;1937;51.444;6.484;2023-10-13T01:58:24;70127.41;;;18.38;100.00
3844;BME280;1937;51.444;6.484;2023-10-13T02:00:51;70102.34;;;18.35;100.00
3844;BME280;1937;51.444;6.484;2023-10-13T02:03:18;70123.84;;;18.22;100.00
3844;BME280;1937;51.444;6.484;2023-10-13T02:05:44;70157.13;;;18.41;100.00
3844;BME280;1937;51.444;6.484;2023-10-13T02:08:13;70125.81;;;18.35;100.00
3844;BME280;1937;51.444;6.484;2023-10-13T02:10:47;70147.88;;;18.42;100.00
3844;BME280;1937;51.444;6.484;2023-10-13T02:13:16;70153.09;;;18.42;100.00
3844;BME280;1937;51.444;6.484;2023-10-13T02:15:44;70140.69;;;18.36;100.00
3844;BME280;1937;51.444;6.484;2023-10-13T02:18:14;70117.81;;;18.30;100.00
3844;BME280;1937;51.444;6.484;2023-10-13T02:20:46;70148.91;;;18.32;100.00
3844;BME280;1937;51.444;6.484;2023-10-13T02:23:20;70186.84;;;18.31;100.00
3844;BME280;1937;51.444;6.484;2023-10-13T02:25:45;70141.31;;;18.24;100.00
3844;BME280;1937;51.444;6.484;2023-10-13T02:28:12;70153.13;;;18.29;100.00
3844;BME280;1937;51.444;6.484;2023-10-13T02:30:40;70206.25;;;18.39;100.00
3844;BME280;1937;51.444;6.484;2023-10-13T02:33:11;70205.66;;;18.38;100.00
3844;BME280;1937;51.444;6.484;2023-10-13T02:35:37;70198.84;;;18.41;100.00
3844;BME280;1937;51.444;6.484;2023-10-13T02:38:08;70223.13;;;18.47;100.00
3844;BME280;1937;51.444;6.484;2023-10-13T02:40:37;70210.69;;;18.47;100.00
3844;BME280;1937;51.444;6.484;2023-10-13T02:43:04;70216.91;;;18.44;100.00
3844;BME280;1937;51.444;6.484;2023-10-13T02:45:30;70251.03;;;18.55;100.00
3844;BME280;1937;51.444;6.484;2023-10-13T02:47:57;70215.91;;;18.47;100.00
3844;BME280;1937;51.444;6.484;2023-10-13T02:50:39;70239.16;;;18.56;100.00
3844;BME280;1937;51.444;6.484;2023-10-13T02:53:08;70190.41;;;18.48;100.00
3844;BME280;1937;51.444;6.484;2023-10-13T02:55:38;70209.66;;;18.51;100.00
3844;BME280;1937;51.444;6.484;2023-10-13T02:58:05;70210.50;;;18.42;100.00
3844;BME280;1937;51.444;6.484;2023-10-13T03:00:31;70231.53;;;18.54;100.00
3844;BME280;1937;51.444;6.484;2023-10-13T03:02:58;70240.16;;;18.46;100.00
3844;BME280;1937;51.444;6.484;2023-10-13T03:05:24;70231.75;;;18.45;100.00
3844;BME280;1937;51.444;6.484;2023-10-13T03:07:56;70197.22;;;18.38;100.00
3844;BME280;1937;51.444;6.484;2023-10-13T03:10:24;70242.41;;;18.43;100.00
3844;BME280;1937;51.444;6.484;2023-10-13T03:12:54;70230.75;;;18.42;100.00
3844;BME280;1937;51.444;6.484;2023-10-13T03:15:21;70285.31;;;18.51;100.00
3844;BME280;1937;51.444;6.484;2023-10-13T03:17:56;70270.69;;;18.47;100.00
3844;BME280;1937;51.444;6.484;2023-10-13T03:20:24;70246.22;;;18.37;100.00
3844;BME280;1937;51.444;6.484;2023-10-13T03:22:58;70272.28;;;18.51;100.00
3844;BME280;1937;51.444;6.484;2023-10-13T03:25:25;70212.31;;;18.31;100.00
3844;BME280;1937;51.444;6.484;2023-10-13T03:27:55;70323.47;;;18.41;100.00
3844;BME280;1937;51.444;6.484;2023-10-13T03:30:30;70267.88;;;18.42;100.00
3844;BME280;1937;51.444;6.484;2023-10-13T03:33:02;70268.25;;;18.38;100.00
3844;BME280;1937;51.444;6.484;2023-10-13T03:35:33;70269.69;;;18.31;100.00
3844;BME280;1937;51.444;6.484;2023-10-13T03:38:05;70258.84;;;18.28;100.00
3844;BME280;1937;51.444;6.484;2023-10-13T03:40:40;70291.16;;;18.31;100.00
3844;BME280;1937;51.444;6.484;2023-10-13T03:43:06;70247.00;;;18.23;100.00
3844;BME280;1937;51.444;6.484;2023-10-13T03:45:36;70335.88;;;18.34;100.00
3844;BME280;1937;51.444;6.484;2023-10-13T03:48:05;70359.19;;;18.42;100.00
3844;BME280;1937;51.444;6.484;2023-10-13T03:50:35;70314.81;;;18.29;100.00
3844;BME280;1937;51.444;6.484;2023-10-13T03:53:03;70341.91;;;18.32;100.00
3844;BME280;1937;51.444;6.484;2023-10-13T03:55:32;70377.22;;;18.38;100.00
3844;BME280;1937;51.444;6.484;2023-10-13T03:58:00;70338.50;;;18.27;100.00
3844;BME280;1937;51.444;6.484;2023-10-13T04:00:29;70361.78;;;18.29;100.00
3844;BME280;1937;51.444;6.484;2023-10-13T04:02:57;70364.19;;;18.31;100.00
3844;BME280;1937;51.444;6.484;2023-10-13T04:05:35;70317.41;;;18.10;100.00
3844;BME280;1937;51.444;6.484;2023-10-13T04:08:06;70385.63;;;18.19;100.00
3844;BME280;1937;51.444;6.484;2023-10-13T04:10:52;70306.78;;;18.05;100.00
3844;BME280;1937;51.444;6.484;2023-10-13T04:13:36;70392.44;;;18.22;100.00
3844;BME280;1937;51.444;6.484;2023-10-13T04:16:20;70376.19;;;18.15;100.00
3844;BME280;1937;51.444;6.484;2023-10-13T04:19:16;70375.38;;;18.10;100.00
3844;BME280;1937;51.444;6.484;2023-10-13T04:21:50;70442.59;;;18.23;100.00
3844;BME280;1937;51.444;6.484;2023-10-13T04:24:25;70443.03;;;18.25;100.00
3844;BME280;1937;51.444;6.484;2023-10-13T04:27:26;70400.88;;;18.16;100.00
3844;BME280;1937;51.444;6.484;2023-10-13T04:30:10;70423.72;;;18.16;100.00
3844;BME280;1937;51.444;6.484;2023-10-13T04:32:36;70477.13;;;18.23;100.00
3844;BME280;1937;51.444;6.484;2023-10-13T04:35:10;70475.50;;;18.20;100.00
3844;BME280;1937;51.444;6.484;2023-10-13T04:37:42;70425.72;;;18.15;100.00
3844;BME280;1937;51.444;6.484;2023-10-13T04:40:20;70475.88;;;18.16;100.00
3844;BME280;1937;51.444;6.484;2023-10-13T04:42:51;70490.09;;;18.10;100.00
3844;BME280;1937;51.444;6.484;2023-10-13T04:45:23;70469.63;;;18.06;100.00
3844;BME280;1937;51.444;6.484;2023-10-13T04:48:05;70579.06;;;18.28;100.00
3844;BME280;1937;51.444;6.484;2023-10-13T04:50:48;70486.28;;;18.09;100.00
3844;BME280;1937;51.444;6.484;2023-10-13T04:53:18;70543.31;;;18.20;100.00
3844;BME280;1937;51.444;6.484;2023-10-13T04:55:55;70546.09;;;18.18;100.00
3844;BME280;1937;51.444;6.484;2023-10-13T04:58:56;70548.94;;;18.22;100.00
3844;BME280;1937;51.444;6.484;2023-10-13T05:01:39;70540.84;;;18.11;100.00
3844;BME280;1937;51.444;6.484;2023-10-13T05:04:36;70510.56;;;18.08;100.00
3844;BME280;1937;51.444;6.484;2023-10-13T05:07:24;70586.78;;;18.08;100.00
3844;BME280;1937;51.444;6.484;2023-10-13T05:10:08;70593.63;;;18.12;100.00
3844;BME280;1937;51.444;6.484;2023-10-13T05:12:52;70597.44;;;18.13;100.00
3844;BME280;1937;51.444;6.484;2023-10-13T05:15:43;70604.47;;;18.14;100.00
3844;BME280;1937;51.444;6.484;2023-10-13T05:18:28;70566.50;;;18.09;100.00
3844;BME280;1937;51.444;6.484;2023-10-13T05:21:11;70664.06;;;18.18;100.00
3844;BME280;1937;51.444;6.484;2023-10-13T05:23:55;70657.88;;;18.22;100.00
3844;BME280;1937;51.444;6.484;2023-10-13T05:26:39;70748.25;;;18.38;100.00
3844;BME280;1937;51.444;6.484;2023-10-13T05:29:23;70732.75;;;18.30;100.00
3844;BME280;1937;51.444;6.484;2023-10-13T05:32:08;70729.16;;;18.33;100.00
3844;BME280;1937;51.444;6.484;2023-10-13T05:34:52;70739.19;;;18.31;100.00
3844;BME280;1937;51.444;6.484;2023-10-13T05:37:36;70772.78;;;18.41;100.00
3844;BME280;1937;51.444;6.484;2023-10-13T05:40:20;70788.63;;;18.39;100.00
3844;BME280;1937;51.444;6.484;2023-10-13T05:43:04;70721.72;;;18.29;100.00
3844;BME280;1937;51.444;6.484;2023-10-13T05:45:48;70759.25;;;18.32;100.00
3844;BME280;1937;51.444;6.484;2023-10-13T05:48:44;70803.25;;;18.36;100.00
3844;BME280;1937;51.444;6.484;2023-10-13T05:51:47;70813.13;;;18.42;100.00
3844;BME280;1937;51.444;6.484;2023-10-13T05:54:23;70825.34;;;18.37;100.00
3844;BME280;1937;51.444;6.484;2023-10-13T05:57:07;70899.72;;;18.52;100.00
3844;BME280;1937;51.444;6.484;2023-10-13T05:59:51;70889.88;;;18.52;100.00
3844;BME280;1937;51.444;6.484;2023-10-13T06:02:35;70907.81;;;18.56;100.00
3844;BME280;1937;51.444;6.484;2023-10-13T06:05:19;70915.69;;;18.63;100.00
3844;BME280;1937;51.444;6.484;2023-10-13T06:08:05;70930.94;;;18.60;100.00
3844;BME280;1937;51.444;6.484;2023-10-13T06:10:49;70949.81;;;18.61;100.00
3844;BME280;1937;51.444;6.484;2023-10-13T06:13:33;70883.13;;;18.55;100.00
3844;BME280;1937;51.444;6.484;2023-10-13T06:16:26;70905.38;;;18.54;100.00
3844;BME280;1937;51.444;6.484;2023-10-13T06:19:10;70945.78;;;18.62;100.00
3844;BME280;1937;51.444;6.484;2023-10-13T06:21:54;70919.66;;;18.55;100.00
3844;BME280;1937;51.444;6.484;2023-10-13T06:24:39;70920.59;;;18.52;100.00
3844;BME280;1937;51.444;6.484;2023-10-13T06:27:23;70910.16;;;18.52;100.00
3844;BME280;1937;51.444;6.484;2023-10-13T06:30:07;70972.44;;;18.56;100.00
3844;BME280;1937;51.444;6.484;2023-10-13T06:32:34;70985.56;;;18.62;100.00
3844;BME280;1937;51.444;6.484;2023-10-13T06:35:06;71034.97;;;18.64;100.00
3844;BME280;1937;51.444;6.484;2023-10-13T06:37:33;70921.81;;;18.53;100.00
3844;BME280;1937;51.444;6.484;2023-10-13T06:40:11;70956.44;;;18.60;100.00
3844;BME280;1937;51.444;6.484;2023-10-13T06:42:47;70953.59;;;18.55;100.00
3844;BME280;1937;51.444;6.484;2023-10-13T06:45:14;70919.03;;;18.55;100.00
3844;BME280;1937;51.444;6.484;2023-10-13T06:47:44;70914.75;;;18.51;100.00
3844;BME280;1937;51.444;6.484;2023-10-13T06:50:14;71001.41;;;18.60;100.00
3844;BME280;1937;51.444;6.484;2023-10-13T06:52:41;70936.69;;;18.54;100.00
3844;BME280;1937;51.444;6.484;2023-10-13T06:55:10;70966.50;;;18.64;100.00
3844;BME280;1937;51.444;6.484;2023-10-13T06:57:42;70966.13;;;18.68;100.00
3844;BME280;1937;51.444;6.484;2023-10-13T07:00:10;71045.31;;;18.73;100.00
3844;BME280;1937;51.444;6.484;2023-10-13T07:02:45;71042.75;;;18.79;100.00
3844;BME280;1937;51.444;6.484;2023-10-13T07:05:13;71063.06;;;18.79;100.00
3844;BME280;1937;51.444;6.484;2023-10-13T07:07:40;71063.06;;;18.79;100.00
3844;BME280;1937;51.444;6.484;2023-10-13T07:10:10;71117.84;;;18.94;100.00
3844;BME280;1937;51.444;6.484;2023-10-13T07:12:37;71119.31;;;19.00;100.00
3844;BME280;1937;51.444;6.484;2023-10-13T07:15:09;71111.03;;;18.97;100.00
3844;BME280;1937;51.444;6.484;2023-10-13T07:17:44;71057.47;;;18.83;100.00
3844;BME280;1937;51.444;6.484;2023-10-13T07:20:12;71092.88;;;18.89;100.00
3844;BME280;1937;51.444;6.484;2023-10-13T07:22:49;71105.78;;;18.91;100.00
3844;BME280;1937;51.444;6.484;2023-10-13T07:25:29;71143.06;;;19.04;100.00
3844;BME280;1937;51.444;6.484;2023-10-13T07:27:58;71170.06;;;19.09;100.00
3844;BME280;1937;51.444;6.484;2023-10-13T07:30:25;71228.38;;;19.14;100.00
3844;BME280;1937;51.444;6.484;2023-10-13T07:32:53;71153.53;;;19.04;100.00
3844;BME280;1937;51.444;6.484;2023-10-13T07:35:23;71244.94;;;19.19;100.00
3844;BME280;1937;51.444;6.484;2023-10-13T07:37:52;71186.16;;;19.12;100.00
3844;BME280;1937;51.444;6.484;2023-10-13T07:40:21;71318.97;;;19.25;100.00
3844;BME280;1937;51.444;6.484;2023-10-13T07:43:06;71367.53;;;19.45;100.00
3844;BME280;1937;51.444;6.484;2023-10-13T07:45:36;71308.34;;;19.42;100.00
3844;BME280;1937;51.444;6.484;2023-10-13T07:48:03;71377.72;;;19.56;100.00
3844;BME280;1937;51.444;6.484;2023-10-13T07:50:37;71380.09;;;19.51;100.00
3844;BME280;1937;51.444;6.484;2023-10-13T07:53:06;71363.00;;;19.52;100.00
3844;BME280;1937;51.444;6.484;2023-10-13T07:55:45;71426.03;;;19.72;100.00
3844;BME280;1937;51.444;6.484;2023-10-13T07:58:14;71458.56;;;19.82;100.00
3844;BME280;1937;51.444;6.484;2023-10-13T08:00:41;71474.69;;;19.84;100.00
3844;BME280;1937;51.444;6.484;2023-10-13T08:03:22;71539.59;;;20.06;100.00
3844;BME280;1937;51.444;6.484;2023-10-13T08:06:10;71555.84;;;20.15;100.00
3844;BME280;1937;51.444;6.484;2023-10-13T08:08:47;71692.84;;;20.43;100.00
3844;BME280;1937;51.444;6.484;2023-10-13T08:11:18;71843.41;;;20.83;100.00
3844;BME280;1937;51.444;6.484;2023-10-13T08:13:55;71741.28;;;20.99;100.00
3844;BME280;1937;51.444;6.484;2023-10-13T08:16:25;71850.31;;;21.43;100.00
3844;BME280;1937;51.444;6.484;2023-10-13T08:19:13;71754.25;;;21.70;100.00
3844;BME280;1937;51.444;6.484;2023-10-13T08:21:42;71381.03;;;21.35;97.84
3844;BME280;1937;51.444;6.484;2023-10-13T08:24:15;71416.44;;;21.71;96.80
3844;BME280;1937;51.444;6.484;2023-10-13T08:26:50;71131.00;;;21.38;94.96
3844;BME280;1937;51.444;6.484;2023-10-13T08:29:35;71212.28;;;21.45;96.77
3844;BME280;1937;51.444;6.484;2023-10-13T08:32:34;71258.41;;;21.63;95.51
3844;BME280;1937;51.444;6.484;2023-10-13T08:35:13;71289.66;;;21.94;93.86
3844;BME280;1937;51.444;6.484;2023-10-13T08:37:50;71105.97;;;21.94;92.27
3844;BME280;1937;51.444;6.484;2023-10-13T08:40:30;71100.09;;;21.87;92.15
3844;BME280;1937;51.444;6.484;2023-10-13T08:43:32;71030.72;;;21.99;91.69
3844;BME280;1937;51.444;6.484;2023-10-13T08:46:11;70853.28;;;21.89;88.19
3844;BME280;1937;51.444;6.484;2023-10-13T08:48:55;70843.00;;;22.07;87.81
3844;BME280;1937;51.444;6.484;2023-10-13T08:51:33;70786.28;;;21.96;87.76
3844;BME280;1937;51.444;6.484;2023-10-13T08:54:12;70694.03;;;22.00;85.11
3844;BME280;1937;51.444;6.484;2023-10-13T08:56:46;70716.78;;;22.15;84.81
3844;BME280;1937;51.444;6.484;2023-10-13T08:59:20;70685.63;;;22.31;82.97
3844;BME280;1937;51.444;6.484;2023-10-13T09:02:00;70517.81;;;22.29;80.77
3844;BME280;1937;51.444;6.484;2023-10-13T09:04:42;70463.97;;;22.23;80.79
3844;BME280;1937;51.444;6.484;2023-10-13T09:07:10;70423.69;;;22.14;80.50
3844;BME280;1937;51.444;6.484;2023-10-13T09:09:47;70361.06;;;22.16;79.58
3844;BME280;1937;51.444;6.484;2023-10-13T09:12:37;70306.94;;;22.19;78.85
3844;BME280;1937;51.444;6.484;2023-10-13T09:15:06;70372.91;;;22.22;79.85
3844;BME280;1937;51.444;6.484;2023-10-13T09:17:46;70385.84;;;22.41;77.50
3844;BME280;1937;51.444;6.484;2023-10-13T09:20:26;70289.09;;;22.26;78.19
3844;BME280;1937;51.444;6.484;2023-10-13T09:22:58;70293.16;;;22.43;76.86
3844;BME280;1937;51.444;6.484;2023-10-13T09:25:34;70186.28;;;22.30;75.67
3844;BME280;1937;51.444;6.484;2023-10-13T09:28:02;70245.72;;;22.38;76.30
3844;BME280;1937;51.444;6.484;2023-10-13T09:30:42;70301.91;;;22.70;75.25
3844;BME280;1937;51.444;6.484;2023-10-13T09:33:09;70295.84;;;22.72;74.63
3844;BME280;1937;51.444;6.484;2023-10-13T09:35:43;70388.31;;;23.14;72.68
3844;BME280;1937;51.444;6.484;2023-10-13T09:38:09;70378.66;;;23.42;72.53
3844;BME280;1937;51.444;6.484;2023-10-13T09:40:37;70295.91;;;23.30;70.85
3844;BME280;1937;51.444;6.484;2023-10-13T09:43:03;70266.97;;;23.30;71.45
3844;BME280;1937;51.444;6.484;2023-10-13T09:45:35;70291.25;;;23.30;71.73
3844;BME280;1937;51.444;6.484;2023-10-13T09:48:10;70211.16;;;23.29;70.38
3844;BME280;1937;51.444;6.484;2023-10-13T09:50:44;70139.03;;;22.99;70.26
3844;BME280;1937;51.444;6.484;2023-10-13T09:53:11;70113.38;;;23.00;70.47
3844;BME280;1937;51.444;6.484;2023-10-13T09:55:42;70187.59;;;23.22;69.89
3844;BME280;1937;51.444;6.484;2023-10-13T09:58:12;70196.19;;;23.16;70.37
3844;BME280;1937;51.444;6.484;2023-10-13T10:00:44;70110.88;;;23.04;70.11
3844;BME280;1937;51.444;6.484;2023-10-13T10:03:15;70144.09;;;23.12;70.07
3844;BME280;1937;51.444;6.484;2023-10-13T10:05:58;70112.09;;;23.16;69.96
3844;BME280;1937;51.444;6.484;2023-10-13T10:08:31;70111.84;;;23.18;69.26
3844;BME280;1937;51.444;6.484;2023-10-13T10:14:19;70082.00;;;23.26;68.33
3844;BME280;1937;51.444;6.484;2023-10-13T10:17:04;70072.91;;;23.25;66.96
3844;BME280;1937;51.444;6.484;2023-10-13T10:19:45;70044.59;;;23.15;68.62
3844;BME280;1937;51.444;6.484;2023-10-13T10:22:13;69990.59;;;23.16;68.33
3844;BME280;1937;51.444;6.484;2023-10-13T10:24:43;69982.34;;;23.02;68.27
3844;BME280;1937;51.444;6.484;2023-10-13T10:27:09;70006.94;;;23.05;68.25
3844;BME280;1937;51.444;6.484;2023-10-13T10:29:39;70041.50;;;23.19;67.81
3844;BME280;1937;51.444;6.484;2023-10-13T10:32:12;70051.63;;;23.27;67.47
3844;BME280;1937;51.444;6.484;2023-10-13T10:34:41;70098.50;;;23.43;67.55
3844;BME280;1937;51.444;6.484;2023-10-13T10:37:07;70072.56;;;23.56;66.60
3844;BME280;1937;51.444;6.484;2023-10-13T10:39:35;70155.09;;;23.71;66.20
3844;BME280;1937;51.444;6.484;2023-10-13T10:42:10;70106.91;;;23.72;66.36
3844;BME280;1937;51.444;6.484;2023-10-13T10:44:42;70199.72;;;23.77;67.06
3844;BME280;1937;51.444;6.484;2023-10-13T10:47:10;70166.09;;;23.89;65.93
3844;BME280;1937;51.444;6.484;2023-10-13T10:49:37;70115.13;;;23.86;64.76
3844;BME280;1937;51.444;6.484;2023-10-13T10:52:09;70203.31;;;24.02;65.12
3844;BME280;1937;51.444;6.484;2023-10-13T10:54:43;70211.38;;;24.18;65.09
3844;BME280;1937;51.444;6.484;2023-10-13T10:57:11;70188.84;;;24.08;64.55
3844;BME280;1937;51.444;6.484;2023-10-13T10:59:42;70190.41;;;24.12;64.27
3844;BME280;1937;51.444;6.484;2023-10-13T11:02:09;70185.66;;;24.19;63.47
3844;BME280;1937;51.444;6.484;2023-10-13T11:04:41;70239.25;;;24.33;63.60
3844;BME280;1937;51.444;6.484;2023-10-13T11:07:22;70247.03;;;24.39;63.17
3844;BME280;1937;51.444;6.484;2023-10-13T11:09:49;70356.41;;;24.67;64.15
3844;BME280;1937;51.444;6.484;2023-10-13T11:12:18;70490.69;;;25.14;62.51
3844;BME280;1937;51.444;6.484;2023-10-13T11:15:00;70475.03;;;25.29;63.03
3844;BME280;1937;51.444;6.484;2023-10-13T11:17:27;70553.13;;;25.55;61.11
3844;BME280;1937;51.444;6.484;2023-10-13T11:20:11;70529.63;;;25.53;61.47
3844;BME280;1937;51.444;6.484;2023-10-13T11:22:53;70464.47;;;25.41;60.26
3844;BME280;1937;51.444;6.484;2023-10-13T11:25:23;70456.81;;;25.39;59.96
3844;BME280;1937;51.444;6.484;2023-10-13T11:27:55;70394.78;;;25.11;59.95
3844;BME280;1937;51.444;6.484;2023-10-13T11:30:25;70322.66;;;25.08;61.26
3844;BME280;1937;51.444;6.484;2023-10-13T11:33:02;70324.31;;;25.05;60.63
3844;BME280;1937;51.444;6.484;2023-10-13T11:35:31;70251.22;;;24.87;61.20
3844;BME280;1937;51.444;6.484;2023-10-13T11:38:13;70293.03;;;24.85;62.04
3844;BME280;1937;51.444;6.484;2023-10-13T11:40:40;70156.66;;;24.52;62.43
3844;BME280;1937;51.444;6.484;2023-10-13T11:43:25;70251.84;;;24.66;62.25
3844;BME280;1937;51.444;6.484;2023-10-13T11:45:51;70217.94;;;24.68;61.48
3844;BME280;1937;51.444;6.484;2023-10-13T11:48:21;70203.81;;;24.76;60.82
3844;BME280;1937;51.444;6.484;2023-10-13T11:51:00;70211.72;;;24.76;60.65
3844;BME280;1937;51.444;6.484;2023-10-13T11:53:28;70229.44;;;24.82;61.38
3844;BME280;1937;51.444;6.484;2023-10-13T11:55:55;70178.41;;;24.68;61.26
3844;BME280;1937;51.444;6.484;2023-10-13T11:58:22;70182.38;;;24.74;61.70
3844;BME280;1937;51.444;6.484;2023-10-13T12:00:48;70236.38;;;24.79;61.59
3844;BME280;1937;51.444;6.484;2023-10-13T12:03:19;70219.38;;;24.90;60.39
3844;BME280;1937;51.444;6.484;2023-10-13T12:06:04;70276.41;;;25.09;60.34
3844;BME280;1937;51.444;6.484;2023-10-13T12:08:49;70249.78;;;25.00;60.11
3844;BME280;1937;51.444;6.484;2023-10-13T12:11:17;70198.03;;;24.80;61.18
3844;BME280;1937;51.444;6.484;2023-10-13T12:14:03;70207.28;;;24.75;61.45
3844;BME280;1937;51.444;6.484;2023-10-13T12:16:42;70193.75;;;24.72;62.24
3844;BME280;1937;51.444;6.484;2023-10-13T12:19:14;70132.94;;;24.52;62.79
3844;BME280;1937;51.444;6.484;2023-10-13T12:21:42;70122.50;;;24.57;61.68
3844;BME280;1937;51.444;6.484;2023-10-13T12:24:10;70122.78;;;24.55;61.04
3844;BME280;1937;51.444;6.484;2023-10-13T12:26:48;70122.28;;;24.59;61.92
3844;BME280;1937;51.444;6.484;2023-10-13T12:29:22;70152.22;;;24.62;62.14
3844;BME280;1937;51.444;6.484;2023-10-13T12:31:53;70141.19;;;24.66;60.97
3844;BME280;1937;51.444;6.484;2023-10-13T12:34:33;70135.31;;;24.65;61.45
3844;BME280;1937;51.444;6.484;2023-10-13T12:37:23;70175.44;;;24.66;60.92
3844;BME280;1937;51.444;6.484;2023-10-13T12:40:07;70100.97;;;24.61;60.46
3844;BME280;1937;51.444;6.484;2023-10-13T12:42:51;70046.66;;;24.41;61.08
3844;BME280;1937;51.444;6.484;2023-10-13T12:45:38;70072.16;;;24.43;60.98
3844;BME280;1937;51.444;6.484;2023-10-13T12:48:22;70086.97;;;24.51;59.94
3844;BME280;1937;51.444;6.484;2023-10-13T12:51:06;70066.16;;;24.49;60.83
3844;BME280;1937;51.444;6.484;2023-10-13T12:53:45;70097.97;;;24.58;59.75
3844;BME280;1937;51.444;6.484;2023-10-13T12:56:13;70015.84;;;24.51;59.55
3844;BME280;1937;51.444;6.484;2023-10-13T12:58:40;70085.63;;;24.57;60.00
3844;BME280;1937;51.444;6.484;2023-10-13T13:01:07;70095.00;;;24.56;59.29
3844;BME280;1937;51.444;6.484;2023-10-13T13:03:34;69975.81;;;24.28;61.18
3844;BME280;1937;51.444;6.484;2023-10-13T13:06:01;70040.28;;;24.56;59.41
3844;BME280;1937;51.444;6.484;2023-10-13T13:08:32;70019.56;;;24.47;59.45
3844;BME280;1937;51.444;6.484;2023-10-13T13:11:00;70013.81;;;24.52;59.00
3844;BME280;1937;51.444;6.484;2023-10-13T13:13:29;70145.19;;;24.87;59.08
3844;BME280;1937;51.444;6.484;2023-10-13T13:15:57;70151.66;;;24.88;59.04
3844;BME280;1937;51.444;6.484;2023-10-13T13:18:23;70116.50;;;24.74;58.56
3844;BME280;1937;51.444;6.484;2023-10-13T13:20:50;70026.69;;;24.65;57.75
3844;BME280;1937;51.444;6.484;2023-10-13T13:23:20;70132.63;;;24.87;57.87
3844;BME280;1937;51.444;6.484;2023-10-13T13:25:47;70123.06;;;24.91;58.03
3844;BME280;1937;51.444;6.484;2023-10-13T13:28:14;70123.16;;;24.95;57.39
3844;BME280;1937;51.444;6.484;2023-10-13T13:30:42;70088.31;;;24.83;57.66
3844;BME280;1937;51.444;6.484;2023-10-13T13:33:09;70097.66;;;24.82;57.56
3844;BME280;1937;51.444;6.484;2023-10-13T13:35:39;70017.00;;;24.63;58.86
3844;BME280;1937;51.444;6.484;2023-10-13T13:38:08;69977.53;;;24.52;57.66
3844;BME280;1937;51.444;6.484;2023-10-13T13:40:47;69950.03;;;24.40;58.74
3844;BME280;1937;51.444;6.484;2023-10-13T13:43:14;69988.13;;;24.41;58.22
3844;BME280;1937;51.444;6.484;2023-10-13T13:45:58;69891.72;;;24.22;58.99
3844;BME280;1937;51.444;6.484;2023-10-13T13:48:26;69922.56;;;24.28;58.64
3844;BME280;1937;51.444;6.484;2023-10-13T13:50:54;69892.00;;;24.08;59.13
3844;BME280;1937;51.444;6.484;2023-10-13T13:53:21;69927.84;;;24.28;58.66